createdAt,value
2018-08-04T00:01:54.381Z,21.04
2018-08-04T00:04:56.823Z,21.01
2018-08-04T00:07:59.155Z,20.95
2018-08-04T00:11:01.514Z,20.87
2018-08-04T00:14:03.858Z,20.90
2018-08-04T00:20:06.760Z,20.95
2018-08-04T00:23:09.041Z,20.91
2018-08-04T00:26:11.373Z,20.85
2018-08-04T00:29:13.772Z,20.82
2018-08-04T00:32:16.160Z,20.83
2018-08-04T00:35:19.120Z,20.82
2018-08-04T00:38:21.492Z,20.85
2018-08-04T00:41:23.792Z,20.90
2018-08-04T00:47:20.747Z,20.93
2018-08-04T00:50:23.151Z,20.92
2018-08-04T00:53:25.816Z,20.87
2018-08-04T00:56:28.234Z,20.83
2018-08-04T00:59:30.486Z,20.85
2018-08-04T01:02:32.847Z,20.89
2018-08-04T01:05:36.219Z,20.93
2018-08-04T01:08:38.527Z,21.01
2018-08-04T01:11:40.850Z,21.13
2018-08-04T01:14:43.416Z,21.15
2018-08-04T01:17:45.671Z,20.88
2018-08-04T01:20:47.937Z,20.31
2018-08-04T01:23:50.194Z,20.04
2018-08-04T01:26:52.534Z,20.00
2018-08-04T01:29:54.876Z,20.05
2018-08-04T01:32:57.136Z,20.12
2018-08-04T01:35:59.449Z,20.16
2018-08-04T01:39:01.764Z,20.21
2018-08-04T01:42:04.078Z,20.29
2018-08-04T01:45:06.311Z,20.20
2018-08-04T01:48:08.548Z,20.12
2018-08-04T01:51:10.855Z,20.10
2018-08-04T01:54:13.147Z,20.10
2018-08-04T01:57:15.534Z,20.10
2018-08-04T01:59:21.392Z,20.10
2018-08-04T02:00:23.685Z,20.07
2018-08-04T02:01:25.910Z,20.06
2018-08-04T02:02:58.247Z,20.07
2018-08-04T02:04:31.573Z,20.05
2018-08-04T02:06:03.961Z,20.06
2018-08-04T02:07:36.331Z,20.06
2018-08-04T02:09:09.868Z,20.07
2018-08-04T02:10:42.289Z,20.05
2018-08-04T02:12:14.617Z,20.02
2018-08-04T02:13:46.996Z,19.98
2018-08-04T02:15:19.371Z,19.97
2018-08-04T02:16:51.645Z,19.93
2018-08-04T02:18:23.984Z,19.90
2018-08-04T02:19:56.361Z,19.88
2018-08-04T02:21:28.719Z,19.85
2018-08-04T02:23:01.078Z,19.83
2018-08-04T02:24:33.491Z,19.80
2018-08-04T02:26:05.784Z,19.80
2018-08-04T02:27:38.017Z,19.83
2018-08-04T02:29:10.243Z,19.84
2018-08-04T02:30:42.611Z,19.85
2018-08-04T02:32:14.959Z,19.89
2018-08-04T02:33:47.317Z,19.93
2018-08-04T02:35:19.617Z,19.99
2018-08-04T02:36:51.831Z,20.07
2018-08-04T02:38:24.174Z,20.13
2018-08-04T02:39:56.441Z,20.20
2018-08-04T02:41:28.765Z,20.28
2018-08-04T02:43:01.129Z,20.32
2018-08-04T02:44:33.441Z,20.33
2018-08-04T02:46:05.732Z,20.35
2018-08-04T02:47:38.155Z,20.36
2018-08-04T02:49:10.375Z,20.33
2018-08-04T02:50:43.780Z,20.34
2018-08-04T02:52:16.106Z,20.35
2018-08-04T02:53:48.506Z,20.36
2018-08-04T02:55:20.842Z,20.37
2018-08-04T02:56:53.247Z,20.38
2018-08-04T02:58:25.547Z,20.41
2018-08-04T02:59:57.806Z,20.40
2018-08-04T03:01:30.102Z,20.43
2018-08-04T03:03:02.459Z,20.47
2018-08-04T03:04:35.809Z,20.35
2018-08-04T03:06:08.120Z,20.27
2018-08-04T03:07:40.426Z,20.22
2018-08-04T03:09:12.724Z,20.14
2018-08-04T03:10:45.096Z,20.11
2018-08-04T03:12:17.421Z,20.06
2018-08-04T03:13:49.932Z,20.05
2018-08-04T03:15:22.298Z,20.05
2018-08-04T03:16:54.645Z,20.04
2018-08-04T03:18:26.869Z,20.06
2018-08-04T03:19:59.169Z,20.08
2018-08-04T03:21:31.860Z,20.10
2018-08-04T03:23:04.212Z,20.12
2018-08-04T03:24:36.574Z,20.13
2018-08-04T03:26:08.918Z,20.13
2018-08-04T03:27:41.179Z,20.14
2018-08-04T03:29:13.409Z,20.14
2018-08-04T03:30:45.704Z,20.16
2018-08-04T03:32:17.954Z,20.15
2018-08-04T03:33:50.251Z,20.16
2018-08-04T03:35:22.506Z,20.13
2018-08-04T03:36:54.747Z,20.14
2018-08-04T03:38:27.019Z,20.10
2018-08-04T03:39:59.508Z,20.09
2018-08-04T03:41:31.876Z,20.09
2018-08-04T03:43:04.144Z,20.08
2018-08-04T03:44:36.487Z,20.08
2018-08-04T03:46:08.891Z,20.09
2018-08-04T03:47:41.223Z,20.07
2018-08-04T03:49:13.451Z,20.03
2018-08-04T03:50:45.736Z,20.02
2018-08-04T03:52:17.996Z,20.03
2018-08-04T03:53:50.243Z,20.07
2018-08-04T03:55:22.538Z,20.08
2018-08-04T03:56:54.805Z,20.09
2018-08-04T03:58:27.152Z,20.06
2018-08-04T03:59:59.540Z,20.07
2018-08-04T04:01:31.914Z,20.06
2018-08-04T04:03:04.214Z,20.05
2018-08-04T04:04:36.503Z,20.03
2018-08-04T04:06:08.837Z,20.01
2018-08-04T04:07:41.093Z,19.95
2018-08-04T04:09:13.390Z,19.88
2018-08-04T04:10:45.761Z,19.83
2018-08-04T04:12:18.228Z,19.78
2018-08-04T04:13:50.789Z,19.74
2018-08-04T04:15:23.074Z,19.72
2018-08-04T04:16:55.520Z,19.71
2018-08-04T04:18:27.789Z,19.72
2018-08-04T04:20:00.140Z,19.74
2018-08-04T04:21:33.572Z,19.75
2018-08-04T04:23:05.875Z,19.75
2018-08-04T04:24:38.111Z,19.77
2018-08-04T04:26:10.546Z,19.81
2018-08-04T04:27:43.297Z,19.85
2018-08-04T04:29:15.520Z,19.87
2018-08-04T04:30:47.852Z,19.90
2018-08-04T04:32:20.201Z,19.90
2018-08-04T04:33:52.452Z,19.94
2018-08-04T04:35:24.813Z,19.96
2018-08-04T04:36:57.035Z,20.01
2018-08-04T04:38:29.268Z,20.08
2018-08-04T04:40:01.931Z,20.17
2018-08-04T04:41:34.374Z,20.32
2018-08-04T04:43:06.812Z,20.65
2018-08-04T04:44:39.119Z,21.16
2018-08-04T04:46:11.426Z,21.67
2018-08-04T04:47:43.801Z,22.07
2018-08-04T04:49:16.165Z,22.13
2018-08-04T04:50:48.515Z,21.96
2018-08-04T04:52:20.876Z,21.81
2018-08-04T04:53:53.324Z,21.75
2018-08-04T04:55:25.715Z,21.75
2018-08-04T04:56:58.041Z,21.77
2018-08-04T04:58:30.303Z,21.77
2018-08-04T05:00:02.640Z,21.82
2018-08-04T05:01:35.041Z,21.91
2018-08-04T05:03:07.322Z,22.07
2018-08-04T05:04:40.633Z,22.82
2018-08-04T05:06:12.854Z,23.87
2018-08-04T05:07:45.068Z,24.83
2018-08-04T05:09:17.367Z,25.56
2018-08-04T05:10:49.601Z,26.19
2018-08-04T05:12:21.898Z,26.78
2018-08-04T05:13:55.337Z,27.24
2018-08-04T05:15:27.634Z,27.67
2018-08-04T05:16:59.980Z,28.14
2018-08-04T05:18:32.217Z,28.57
2018-08-04T05:20:05.406Z,28.99
2018-08-04T05:21:37.808Z,29.30
2018-08-04T05:23:10.125Z,29.46
2018-08-04T05:24:42.428Z,29.65
2018-08-04T05:26:14.717Z,29.05
2018-08-04T05:27:46.945Z,28.03
2018-08-04T05:29:19.255Z,27.41
2018-08-04T05:30:51.432Z,27.57
2018-08-04T05:32:23.769Z,27.92
2018-08-04T05:33:55.964Z,28.13
2018-08-04T05:35:28.187Z,27.87
2018-08-04T05:37:00.571Z,27.31
2018-08-04T05:38:32.868Z,27.75
2018-08-04T05:40:05.213Z,28.38
2018-08-04T05:41:37.516Z,28.85
2018-08-04T05:43:09.752Z,29.17
2018-08-04T05:44:42.028Z,29.72
2018-08-04T05:46:14.294Z,29.97
2018-08-04T05:47:46.480Z,30.23
2018-08-04T05:49:18.693Z,30.13
2018-08-04T05:50:50.951Z,30.56
2018-08-04T05:52:23.273Z,31.09
2018-08-04T05:53:55.563Z,31.76
2018-08-04T05:55:27.860Z,32.22
2018-08-04T05:57:00.082Z,32.74
2018-08-04T05:58:32.374Z,33.05
2018-08-04T06:00:06.276Z,33.46
2018-08-04T06:01:38.578Z,33.78
2018-08-04T06:03:10.881Z,34.07
2018-08-04T06:04:43.194Z,34.32
2018-08-04T06:06:15.467Z,34.74
2018-08-04T06:07:47.735Z,35.04
2018-08-04T06:09:19.979Z,35.38
2018-08-04T06:10:52.239Z,35.67
2018-08-04T06:12:24.624Z,35.67
2018-08-04T06:13:56.932Z,36.00
2018-08-04T06:15:29.237Z,36.45
2018-08-04T06:17:01.504Z,36.56
2018-08-04T06:18:33.749Z,36.95
2018-08-04T06:20:06.194Z,37.41
2018-08-04T06:21:38.517Z,37.82
2018-08-04T06:23:10.761Z,37.99
2018-08-04T06:24:42.999Z,37.51
2018-08-04T06:26:16.365Z,37.11
2018-08-04T06:27:49.700Z,36.48
2018-08-04T06:29:21.901Z,36.29
2018-08-04T06:30:54.175Z,35.91
2018-08-04T06:32:26.505Z,35.59
2018-08-04T06:33:58.728Z,35.07
2018-08-04T06:35:31.045Z,34.37
2018-08-04T06:37:03.429Z,33.29
2018-08-04T06:38:35.758Z,32.79
2018-08-04T06:40:08.229Z,31.98
2018-08-04T06:41:40.555Z,31.56
2018-08-04T06:43:12.839Z,31.36
2018-08-04T06:44:45.117Z,30.85
2018-08-04T06:46:17.333Z,30.48
2018-08-04T06:47:49.634Z,30.07
2018-08-04T06:49:21.862Z,29.46
2018-08-04T06:50:54.272Z,28.93
2018-08-04T06:52:26.597Z,27.88
2018-08-04T06:53:58.884Z,27.39
2018-08-04T06:55:31.171Z,27.09
2018-08-04T06:57:03.413Z,26.92
2018-08-04T06:58:35.634Z,26.89
2018-08-04T07:00:08.563Z,26.94
2018-08-04T07:01:41.019Z,27.08
2018-08-04T07:03:14.303Z,27.25
2018-08-04T07:04:46.653Z,27.33
2018-08-04T07:06:18.829Z,27.48
2018-08-04T07:07:51.126Z,27.58
2018-08-04T07:09:23.412Z,27.61
2018-08-04T07:10:55.614Z,27.62
2018-08-04T07:12:27.875Z,27.43
2018-08-04T07:14:00.159Z,27.29
2018-08-04T07:15:32.485Z,27.11
2018-08-04T07:17:04.807Z,26.89
2018-08-04T07:18:37.147Z,26.54
2018-08-04T07:20:09.343Z,26.45
2018-08-04T07:21:41.612Z,26.44
2018-08-04T07:23:13.912Z,26.25
2018-08-04T07:24:46.146Z,26.17
2018-08-04T07:26:18.432Z,26.08
2018-08-04T07:27:50.621Z,26.27
2018-08-04T07:29:22.808Z,26.46
2018-08-04T07:30:56.015Z,26.50
2018-08-04T07:32:28.265Z,26.41
2018-08-04T07:34:00.601Z,26.55
2018-08-04T07:35:32.908Z,26.71
2018-08-04T07:37:05.569Z,26.71
2018-08-04T07:38:37.790Z,26.66
2018-08-04T07:40:09.933Z,26.89
2018-08-04T07:41:42.260Z,26.63
2018-08-04T07:43:14.485Z,26.49
2018-08-04T07:44:46.757Z,26.57
2018-08-04T07:46:19.111Z,26.64
2018-08-04T07:47:51.325Z,26.84
2018-08-04T07:49:23.612Z,26.96
2018-08-04T07:50:55.796Z,27.34
2018-08-04T07:53:58.101Z,30.20
2018-08-04T07:57:00.279Z,31.46
2018-08-04T08:00:02.609Z,32.65
2018-08-04T08:03:04.880Z,33.55
2018-08-04T08:06:07.149Z,33.09
2018-08-04T08:09:09.449Z,32.14
2018-08-04T08:12:11.835Z,32.23
2018-08-04T08:15:14.172Z,32.71
2018-08-04T08:18:16.426Z,32.13
2018-08-04T08:21:18.707Z,31.59
2018-08-04T08:24:20.985Z,31.97
2018-08-04T08:27:23.276Z,31.65
2018-08-04T08:30:25.648Z,31.12
2018-08-04T08:33:28.080Z,32.97
2018-08-04T08:36:30.356Z,33.92
2018-08-04T08:39:32.722Z,33.76
2018-08-04T08:42:35.071Z,33.19
2018-08-04T08:45:37.419Z,33.09
2018-08-04T08:48:39.809Z,32.82
2018-08-04T08:51:42.061Z,33.06
2018-08-04T08:54:44.654Z,33.28
2018-08-04T08:57:46.997Z,33.45
2018-08-04T09:00:49.297Z,33.29
2018-08-04T09:03:52.290Z,32.23
2018-08-04T09:06:54.650Z,32.37
2018-08-04T09:09:57.020Z,32.11
2018-08-04T09:12:59.313Z,31.65
2018-08-04T09:16:01.671Z,32.18
2018-08-04T09:19:04.271Z,32.14
2018-08-04T09:22:06.632Z,31.78
2018-08-04T09:25:09.198Z,31.62
2018-08-04T09:28:11.568Z,31.65
2018-08-04T09:31:13.818Z,31.40
2018-08-04T09:34:16.037Z,32.18
2018-08-04T09:37:18.394Z,32.14
2018-08-04T09:40:20.756Z,32.87
2018-08-04T09:43:23.027Z,33.02
2018-08-04T09:46:25.300Z,33.18
2018-08-04T09:49:27.614Z,32.05
2018-08-04T09:52:29.987Z,32.88
2018-08-04T09:55:32.315Z,33.20
2018-08-04T09:58:34.583Z,33.45
2018-08-04T10:01:37.974Z,33.25
2018-08-04T10:04:40.546Z,34.14
2018-08-04T10:07:42.845Z,34.74
2018-08-04T10:10:45.141Z,33.96
2018-08-04T10:13:47.557Z,33.73
2018-08-04T10:16:49.800Z,34.59
2018-08-04T10:19:52.054Z,34.82
2018-08-04T10:22:54.183Z,33.89
2018-08-04T10:25:56.529Z,34.28
2018-08-04T10:28:58.789Z,35.07
2018-08-04T10:32:01.258Z,35.34
2018-08-04T10:35:04.040Z,35.43
2018-08-04T10:38:06.347Z,34.69
2018-08-04T10:41:08.687Z,34.83
2018-08-04T10:44:10.988Z,33.92
2018-08-04T10:47:13.243Z,34.45
2018-08-04T10:50:15.485Z,34.78
2018-08-04T10:53:17.823Z,34.31
2018-08-04T10:56:20.145Z,33.37
2018-08-04T10:59:22.491Z,33.54
2018-08-04T11:02:24.826Z,33.81
2018-08-04T11:05:27.060Z,34.13
2018-08-04T11:08:29.341Z,34.27
2018-08-04T11:11:31.664Z,33.87
2018-08-04T11:14:33.929Z,34.08
2018-08-04T11:17:36.676Z,34.38
2018-08-04T11:20:39.013Z,35.01
2018-08-04T11:23:41.302Z,34.21
2018-08-04T11:26:43.523Z,34.51
2018-08-04T11:29:45.837Z,35.48
2018-08-04T11:32:48.101Z,35.37
2018-08-04T11:35:50.448Z,34.90
2018-08-04T11:38:52.745Z,34.32
2018-08-04T11:41:55.021Z,34.84
2018-08-04T11:44:57.275Z,34.81
2018-08-04T11:47:59.518Z,34.42
2018-08-04T11:51:01.957Z,34.77
2018-08-04T11:54:04.167Z,34.41
2018-08-04T11:57:06.441Z,34.49
2018-08-04T12:00:08.853Z,34.55
2018-08-04T12:03:12.387Z,35.10
2018-08-04T12:06:14.647Z,35.31
2018-08-04T12:09:16.974Z,35.18
2018-08-04T12:12:19.407Z,34.73
2018-08-04T12:15:21.748Z,34.97
2018-08-04T12:18:23.980Z,35.39
2018-08-04T12:21:26.263Z,35.25
2018-08-04T12:24:28.582Z,35.95
2018-08-04T12:27:30.772Z,36.00
2018-08-04T12:30:33.093Z,35.91
2018-08-04T12:33:35.371Z,35.51
2018-08-04T12:36:37.676Z,35.27
2018-08-04T12:39:39.925Z,34.97
2018-08-04T12:42:42.135Z,34.84
2018-08-04T12:45:44.439Z,34.88
2018-08-04T12:48:46.707Z,34.75
2018-08-04T12:51:49.056Z,34.93
2018-08-04T12:54:51.244Z,35.09
2018-08-04T12:57:53.532Z,35.01
2018-08-04T13:00:55.758Z,35.66
2018-08-04T13:03:58.053Z,35.97
2018-08-04T13:07:00.352Z,35.65
2018-08-04T13:10:03.828Z,35.40
2018-08-04T13:13:06.148Z,35.47
2018-08-04T13:16:08.469Z,35.37
2018-08-04T13:19:10.726Z,35.49
2018-08-04T13:22:13.097Z,34.85
2018-08-04T13:25:15.437Z,35.16
2018-08-04T13:28:17.657Z,35.46
2018-08-04T13:31:20.027Z,35.18
2018-08-04T13:34:22.325Z,34.94
2018-08-04T13:37:24.640Z,35.87
2018-08-04T13:40:26.899Z,36.39
2018-08-04T13:43:30.195Z,36.30
2018-08-04T13:46:32.479Z,36.65
2018-08-04T13:49:34.781Z,36.46
2018-08-04T13:52:37.086Z,36.77
2018-08-04T13:55:39.682Z,36.58
2018-08-04T13:58:42.710Z,36.06
2018-08-04T14:01:45.364Z,36.57
2018-08-04T14:04:47.846Z,36.03
2018-08-04T14:07:50.683Z,36.51
2018-08-04T14:10:53.023Z,35.96
2018-08-04T14:13:56.132Z,35.98
2018-08-04T14:16:58.464Z,35.90
2018-08-04T14:20:00.694Z,35.86
2018-08-04T14:23:03.082Z,35.95
2018-08-04T14:26:05.310Z,36.04
2018-08-04T14:29:07.559Z,35.90
2018-08-04T14:32:09.817Z,35.79
2018-08-04T14:35:12.116Z,35.08
2018-08-04T14:38:14.463Z,34.69
2018-08-04T14:41:16.725Z,35.23
2018-08-04T14:44:18.972Z,35.70
2018-08-04T14:47:22.320Z,36.05
2018-08-04T14:50:24.547Z,36.10
2018-08-04T14:53:26.837Z,36.25
2018-08-04T14:56:29.304Z,36.49
2018-08-04T14:59:34.336Z,36.13
2018-08-04T15:02:36.648Z,35.57
2018-08-04T15:05:39.109Z,35.86
2018-08-04T15:08:41.373Z,35.72
2018-08-04T15:11:43.647Z,35.97
2018-08-04T15:14:45.891Z,35.57
2018-08-04T15:17:48.192Z,35.69
2018-08-04T15:20:50.558Z,35.86
2018-08-04T15:23:52.833Z,35.67
2018-08-04T15:26:55.135Z,36.35
2018-08-04T15:29:57.374Z,35.93
2018-08-04T15:32:59.699Z,36.51
2018-08-04T15:36:01.945Z,36.24
2018-08-04T15:39:06.748Z,36.18
2018-08-04T15:42:09.006Z,36.43
2018-08-04T15:45:11.325Z,36.16
2018-08-04T15:48:13.641Z,36.07
2018-08-04T15:51:17.215Z,35.95
2018-08-04T15:54:19.549Z,35.56
2018-08-04T15:57:22.331Z,36.02
2018-08-04T16:00:24.580Z,36.14
2018-08-04T16:03:26.903Z,35.87
2018-08-04T16:06:29.232Z,35.88
2018-08-04T16:09:31.519Z,35.44
2018-08-04T16:12:34.843Z,35.71
2018-08-04T16:15:37.035Z,35.44
2018-08-04T16:18:39.366Z,35.41
2018-08-04T16:21:42.624Z,35.15
2018-08-04T16:24:45.059Z,35.10
2018-08-04T16:27:47.326Z,35.00
2018-08-04T16:30:49.517Z,34.94
2018-08-04T16:33:51.803Z,35.12
2018-08-04T16:36:54.094Z,34.81
2018-08-04T16:39:56.330Z,34.71
2018-08-04T16:42:58.521Z,34.80
2018-08-04T16:46:00.800Z,35.01
2018-08-04T16:49:03.096Z,35.46
2018-08-04T16:52:05.373Z,35.26
2018-08-04T16:55:07.608Z,34.62
2018-08-04T16:58:09.836Z,34.56
2018-08-04T17:01:12.097Z,34.62
2018-08-04T17:04:14.355Z,34.36
2018-08-04T17:07:16.619Z,34.36
2018-08-04T17:10:18.889Z,35.02
2018-08-04T17:13:21.176Z,35.64
2018-08-04T17:16:23.485Z,35.24
2018-08-04T17:19:25.673Z,35.09
2018-08-04T17:22:28.001Z,34.91
2018-08-04T17:25:30.241Z,35.00
2018-08-04T17:28:32.509Z,34.56
2018-08-04T17:31:34.785Z,34.49
2018-08-04T17:34:37.116Z,34.33
2018-08-04T17:37:39.546Z,34.63
2018-08-04T17:40:41.812Z,34.43
2018-08-04T17:43:44.119Z,34.14
2018-08-04T17:46:46.361Z,33.92
2018-08-04T17:49:48.559Z,33.56
2018-08-04T17:52:51.815Z,33.37
2018-08-04T17:55:53.984Z,33.06
2018-08-04T17:58:56.241Z,32.93
2018-08-04T18:01:58.650Z,32.73
2018-08-04T18:05:00.913Z,32.64
2018-08-04T18:08:03.152Z,32.37
2018-08-04T18:11:07.428Z,31.98
2018-08-04T18:14:09.718Z,31.77
2018-08-04T18:17:11.934Z,31.44
2018-08-04T18:20:14.217Z,31.18
2018-08-04T18:23:16.469Z,31.02
2018-08-04T18:26:18.736Z,30.93
2018-08-04T18:29:21.011Z,30.73
2018-08-04T18:32:23.297Z,30.45
2018-08-04T18:35:25.553Z,30.24
2018-08-04T18:38:27.838Z,30.02
2018-08-04T18:41:30.084Z,29.88
2018-08-04T18:44:32.494Z,29.74
2018-08-04T18:47:35.865Z,29.71
2018-08-04T18:50:38.197Z,29.84
2018-08-04T18:53:40.414Z,29.56
2018-08-04T18:56:42.714Z,29.17
2018-08-04T18:59:44.966Z,28.81
2018-08-04T19:02:48.417Z,28.63
2018-08-04T19:05:50.740Z,28.34
2018-08-04T19:08:53.030Z,28.15
2018-08-04T19:11:55.264Z,27.81
2018-08-04T19:14:57.564Z,27.48
2018-08-04T19:17:59.879Z,27.29
2018-08-04T19:21:02.085Z,27.25
2018-08-04T19:24:04.477Z,27.09
2018-08-04T19:27:06.773Z,26.81
2018-08-04T19:30:09.009Z,26.52
2018-08-04T19:33:11.450Z,26.30
2018-08-04T19:36:13.723Z,26.10
2018-08-04T19:39:15.964Z,25.99
2018-08-04T19:42:18.189Z,25.83
2018-08-04T19:45:20.512Z,25.65
2018-08-04T19:48:23.882Z,25.45
2018-08-04T19:51:26.164Z,25.25
2018-08-04T19:54:28.440Z,25.10
2018-08-04T19:57:30.676Z,24.93
2018-08-04T20:00:33.013Z,24.82
2018-08-04T20:03:35.325Z,24.80
2018-08-04T20:06:37.631Z,24.94
2018-08-04T20:09:39.996Z,24.94
2018-08-04T20:12:42.284Z,24.92
2018-08-04T20:15:44.526Z,24.89
2018-08-04T20:18:46.919Z,24.81
2018-08-04T20:21:49.229Z,24.81
2018-08-04T20:24:51.623Z,24.78
2018-08-04T20:27:53.971Z,24.68
2018-08-04T20:30:56.229Z,24.61
2018-08-04T20:33:58.608Z,24.55
2018-08-04T20:37:00.912Z,24.40
2018-08-04T20:40:03.367Z,24.33
2018-08-04T20:43:06.688Z,24.20
2018-08-04T20:46:08.958Z,23.98
2018-08-04T20:49:11.305Z,23.75
2018-08-04T20:52:13.604Z,23.48
2018-08-04T20:55:15.911Z,23.30
2018-08-04T20:58:18.282Z,23.08
2018-08-04T21:02:02.072Z,22.87
2018-08-04T21:05:04.420Z,22.84
2018-08-04T21:08:07.558Z,22.79
2018-08-04T21:11:09.821Z,22.72
2018-08-04T21:14:12.158Z,22.66
2018-08-04T21:17:14.432Z,22.66
2018-08-04T21:20:17.816Z,22.74
2018-08-04T21:23:20.142Z,22.72
2018-08-04T21:26:22.438Z,22.61
2018-08-04T21:29:24.898Z,22.45
2018-08-04T21:32:27.138Z,22.22
2018-08-04T21:35:29.665Z,22.08
2018-08-04T21:38:32.010Z,21.99
2018-08-04T21:41:34.259Z,22.10
2018-08-04T21:44:36.554Z,22.24
2018-08-04T21:47:38.867Z,22.31
2018-08-04T21:50:41.305Z,22.24
2018-08-04T21:53:43.612Z,22.15
2018-08-04T21:56:46.152Z,22.04
2018-08-04T21:59:48.396Z,21.99
2018-08-04T22:02:58.520Z,21.99
2018-08-04T22:06:00.823Z,22.05
2018-08-04T22:09:14.549Z,22.06
2018-08-04T22:12:16.817Z,21.97
2018-08-04T22:15:19.114Z,21.83
2018-08-04T22:18:21.374Z,21.77
2018-08-04T22:21:23.591Z,21.70
2018-08-04T22:24:25.791Z,21.66
2018-08-04T22:27:28.085Z,21.62
2018-08-04T22:30:30.306Z,21.52
2018-08-04T22:33:32.543Z,21.47
2018-08-04T22:36:34.819Z,21.55
2018-08-04T22:39:37.104Z,21.56
2018-08-04T22:42:39.603Z,21.32
2018-08-04T22:46:21.015Z,21.27
2018-08-04T22:49:23.305Z,21.26
2018-08-04T22:52:25.632Z,21.19
2018-08-04T22:55:27.910Z,21.29
2018-08-04T22:58:30.135Z,21.31
2018-08-04T23:01:32.419Z,21.25
2018-08-04T23:04:34.726Z,21.14
2018-08-04T23:07:37.130Z,21.06
2018-08-04T23:10:39.980Z,21.03
2018-08-04T23:13:42.213Z,21.08
2018-08-04T23:16:44.544Z,21.15
2018-08-04T23:19:46.900Z,21.18
2018-08-04T23:22:49.360Z,21.11
2018-08-04T23:25:51.742Z,21.14
2018-08-04T23:28:54.013Z,21.11
2018-08-04T23:31:56.396Z,20.74
2018-08-04T23:34:58.701Z,20.41
2018-08-04T23:38:01.095Z,20.32
2018-08-04T23:41:04.503Z,20.40
2018-08-04T23:44:06.832Z,20.59
2018-08-04T23:47:09.230Z,20.73
2018-08-04T23:50:11.564Z,20.77
2018-08-04T23:53:13.978Z,20.79
2018-08-04T23:56:16.360Z,20.81
2018-08-04T23:59:18.658Z,20.77
